Latest Weather Observations for Rocky Gully South

IDW60801

Issued at 10:33 am WST Saturday 23 May 2015 (issued every 30 minutes, with the page automatically refreshed every 10 minutes)

About weather observations | Map of weather stations | Latest weather observations for WA | Other Formats
Station Details ID: 009964 Name: ROCKY GULLY Lat: -34.57 Lon: 117.01 Height: 250.0 m
Data from the previous 72 hours. | See also: Recent months at Rocky Gully South
Date/Time
WST
Temp
°C
App
Temp
°C
Dew
Point
Rel
Hum
%
Delta-T
°C
Wind Press
QNH
hPa
Press
MSL
hPa
Rain
since 9 am
mm
Dir
 
Spd
km/h
Gust
km/h
Spd
kts
Gust
kts
23/10:30am 15.8 13.2 10.8 72 2.7 NW 15 24 8 13 - - 0.0
23/10:00am 14.7 12.8 10.5 76 2.2 NNW 11 17 6 9 - - 0.0
23/09:30am 13.2 11.1 9.8 80 1.8 NNW 11 19 6 10 - - 0.0
23/09:00am 10.9 8.5 8.5 85 1.2 N 11 17 6 9 - - 0.0
23/08:30am 9.6 7.4 7.9 89 0.8 N 9 13 5 7 - - 0.0
23/08:00am 8.3 5.9 7.1 92 0.6 N 9 13 5 7 - - 0.0
23/07:30am 7.7 4.8 6.6 93 0.5 N 11 15 6 8 - - 0.0
23/07:00am 7.1 4.9 6.0 93 0.5 N 7 13 4 7 - - 0.0
23/06:30am 7.0 4.7 5.9 93 0.5 N 7 11 4 6 - - 0.0
23/06:00am 7.2 5.0 6.1 93 0.5 N 7 13 4 7 - - 0.0
23/05:30am 7.1 4.9 6.0 93 0.5 N 7 9 4 5 - - 0.0
23/05:00am 7.4 5.2 6.3 93 0.5 N 7 9 4 5 - - 0.0
23/04:30am 7.5 5.3 6.4 93 0.5 N 7 11 4 6 - - 0.0
23/04:00am 7.6 5.5 6.5 93 0.5 N 7 13 4 7 - - 0.0
23/03:30am 7.5 5.3 6.4 93 0.5 N 7 11 4 6 - - 0.0
23/03:00am 7.5 5.3 6.4 93 0.5 N 7 9 4 5 - - 0.0
23/02:30am 7.5 5.3 6.4 93 0.5 N 7 9 4 5 - - 0.0
23/02:00am 7.8 5.9 6.6 92 0.6 N 6 7 3 4 - - 0.0
23/01:30am 7.6 5.6 6.4 92 0.6 NNE 6 7 3 4 - - 0.0
23/01:00am 7.6 5.6 6.4 92 0.6 N 6 7 3 4 - - 0.0
23/12:30am 8.0 6.1 6.6 91 0.7 N 6 7 3 4 - - 0.0
23/12:00am 7.9 5.8 6.5 91 0.7 N 7 11 4 6 - - 0.0
 
Date/Time
WST
Temp
°C
App
Temp
°C
Dew
Point
Rel
Hum
%
Delta-T
°C
Wind Press
QNH
hPa
Press
MSL
hPa
Rain
since 9 am
mm
Dir
 
Spd
km/h
Gust
km/h
Spd
kts
Gust
kts
22/11:30pm 8.3 6.2 6.8 90 0.7 NNE 7 9 4 5 - - 0.0
22/11:00pm 8.6 7.5 6.9 89 0.8 N 2 9 1 5 - - 0.0
22/10:30pm 9.3 7.4 7.4 88 0.9 NNE 7 9 4 5 - - 0.0
22/10:00pm 9.5 7.6 7.6 88 0.9 NNE 7 13 4 7 - - 0.0
22/09:30pm 9.4 7.4 7.3 87 1.0 NNE 7 9 4 5 - - 0.0
22/09:00pm 9.9 7.9 7.3 84 1.3 NNE 7 9 4 5 - - 0.0
22/08:30pm 10.6 8.7 7.7 82 1.4 NNE 7 11 4 6 - - 0.0
22/08:00pm 11.3 9.1 7.8 79 1.7 NNE 9 15 5 8 - - 0.0
22/07:30pm 10.8 8.9 7.5 80 1.6 NE 7 13 4 7 - - 0.0
22/07:00pm 11.9 10.1 8.0 77 1.9 NE 7 9 4 5 - - 0.0
22/06:30pm 11.8 9.9 7.5 75 2.1 NE 7 11 4 6 - - 0.0
22/06:00pm 12.1 10.2 7.6 74 2.2 ENE 7 11 4 6 - - 0.0
22/05:30pm 12.6 10.8 8.1 74 2.2 NNE 7 11 4 6 - - 0.0
22/05:00pm 13.3 11.7 8.0 70 2.7 NNE 6 7 3 4 - - 0.0
22/04:30pm 15.3 13.5 7.8 61 3.8 NNE 7 11 4 6 - - 0.0
22/04:00pm 16.2 14.4 7.9 58 4.2 NE 7 11 4 6 - - 0.0
22/03:30pm 16.7 15.1 8.1 57 4.4 NNE 6 11 3 6 - - 0.0
22/03:00pm 17.0 14.7 7.4 53 4.9 NNE 9 17 5 9 - - 0.0
22/02:30pm 17.4 15.7 8.3 55 4.7 NNE 7 15 4 8 - - 0.0
22/02:00pm 16.2 13.6 7.9 58 4.2 NNE 11 17 6 9 - - 0.0
22/01:30pm 16.4 13.8 7.6 56 4.5 NNE 11 17 6 9 - - 0.0
22/01:00pm 15.9 12.9 7.7 58 4.2 NNE 13 20 7 11 - - 0.0
22/12:30pm 16.1 13.5 7.8 58 4.2 N 11 20 6 11 - - 0.0
22/12:00pm 15.9 13.4 8.4 61 3.9 N 11 20 6 11 - - 0.0
22/11:30am 15.1 12.4 7.4 60 3.9 N 11 20 6 11 - - 0.0
22/11:00am 14.0 11.9 8.2 68 2.9 N 9 15 5 8 - - 0.0
22/10:30am 13.2 10.9 7.6 69 2.8 N 9 17 5 9 - - 0.0
22/10:00am 10.5 7.9 6.1 74 2.1 NNE 9 15 5 8 - - 0.0
22/09:30am 9.8 7.1 5.6 75 1.9 NNE 9 15 5 8 - - 0.0
22/09:00am 9.1 6.3 5.1 76 1.8 NNE 9 17 5 9 - - 0.0
22/08:30am 8.3 5.4 4.5 77 1.7 NNE 9 15 5 8 - - 0.0
22/08:00am 7.7 4.7 4.1 78 1.6 NNE 9 15 5 8 - - 0.0
22/07:30am 7.3 3.8 3.7 78 1.6 N 11 17 6 9 - - 0.0
22/07:00am 7.3 4.2 3.5 77 1.6 NNE 9 15 5 8 - - 0.0
22/06:30am 7.5 4.0 3.7 77 1.7 NNE 11 15 6 8 - - 0.0
22/06:00am 7.6 4.1 3.6 76 1.7 NNE 11 17 6 9 - - 0.0
22/05:30am 7.8 4.3 3.7 75 1.8 NNE 11 19 6 10 - - 0.0
22/05:00am 7.8 4.7 3.7 75 1.8 NNE 9 13 5 7 - - 0.0
22/04:30am 7.6 4.5 3.5 75 1.8 NNE 9 15 5 8 - - 0.0
22/04:00am 7.9 4.8 3.4 73 1.9 NNE 9 15 5 8 - - 0.0
22/03:30am 8.1 4.6 3.6 73 2.0 NNE 11 19 6 10 - - 0.0
22/03:00am 8.2 4.7 3.3 71 2.1 NNE 11 17 6 9 - - 0.0
22/02:30am 8.1 4.6 3.4 72 2.0 NE 11 17 6 9 - - 0.0
22/02:00am 7.9 4.3 3.2 72 2.0 NNE 11 15 6 8 - - 0.0
22/01:30am 8.0 4.8 3.1 71 2.1 NE 9 15 5 8 - - 0.0
22/01:00am 8.4 5.2 3.3 70 2.2 NE 9 15 5 8 - - 0.0
22/12:30am 8.5 5.4 3.4 70 2.2 NE 9 15 5 8 - - 0.0
22/12:00am 8.5 5.0 3.4 70 2.2 NNE 11 17 6 9 - - 0.0
 
Date/Time
WST
Temp
°C
App
Temp
°C
Dew
Point
Rel
Hum
%
Delta-T
°C
Wind Press
QNH
hPa
Press
MSL
hPa
Rain
since 9 am
mm
Dir
 
Spd
km/h
Gust
km/h
Spd
kts
Gust
kts
21/11:30pm 8.5 5.4 3.4 70 2.2 NE 9 17 5 9 - - 0.0
21/11:00pm 8.6 5.4 3.2 69 2.3 NE 9 17 5 9 - - 0.0
21/10:30pm 8.6 5.8 3.2 69 2.3 NE 7 15 4 8 - - 0.0
21/10:00pm 8.6 5.4 3.2 69 2.3 NE 9 15 5 8 - - 0.0
21/09:30pm 8.6 5.4 3.0 68 2.4 NE 9 15 5 8 - - 0.0
21/09:00pm 8.6 5.4 3.0 68 2.4 NNE 9 13 5 7 - - 0.0
21/08:30pm 8.6 5.8 3.0 68 2.4 ENE 7 11 4 6 - - 0.0
21/08:00pm 8.9 6.1 3.3 68 2.4 NE 7 11 4 6 - - 0.0
21/07:30pm 8.9 6.2 3.5 69 2.4 ENE 7 9 4 5 - - 0.0
21/07:00pm 8.5 6.3 3.1 69 2.3 ENE 4 7 2 4 - - 0.0
21/06:30pm 9.3 6.8 3.9 69 2.4 NE 6 9 3 5 - - 0.0
21/06:00pm 9.5 7.1 4.1 69 2.4 NE 6 9 3 5 - - 0.0
21/05:30pm 9.9 7.5 4.1 67 2.6 NNE 6 9 3 5 - - 0.0
21/05:00pm 12.0 9.4 4.0 58 3.6 NE 7 13 4 7 - - 0.0
21/04:30pm 13.2 10.6 4.1 54 4.2 NE 7 17 4 9 - - 0.0
21/04:00pm 13.3 9.5 3.7 52 4.4 NE 13 22 7 12 - - 0.0
21/03:30pm 14.5 11.5 4.2 50 4.8 NE 9 15 5 8 - - 0.0
21/03:00pm 14.7 11.3 4.1 49 4.9 NNE 11 20 6 11 - - 0.0
21/02:30pm 13.8 10.4 4.1 52 4.5 NNE 11 17 6 9 - - 0.0
21/02:00pm 14.4 10.6 4.1 50 4.8 NNE 13 20 7 11 - - 0.0
21/01:30pm 14.1 10.9 4.9 54 4.3 NNE 11 17 6 9 - - 0.0
21/01:00pm 14.6 11.4 5.1 53 4.5 NNE 11 19 6 10 - - 0.0
21/12:30pm 15.0 11.9 5.5 53 4.6 NNE 11 19 6 10 - - 0.0
21/12:00pm 14.0 10.2 4.0 51 4.6 NNE 13 22 7 12 - - 0.0
21/11:30am 14.1 10.7 4.1 51 4.6 N 11 22 6 12 - - 0.0
21/11:00am 14.0 11.4 6.1 59 3.8 NNE 9 17 5 9 - - 0.0
21/10:30am 12.9 9.9 5.8 62 3.4 NNE 11 17 6 9 - - 0.0
21/10:00am 12.3 9.8 6.6 68 2.8 NE 9 15 5 8 - - 0.0
21/09:30am 11.0 8.1 6.6 74 2.1 NNE 11 20 6 11 - - 0.0
21/09:00am 10.0 7.6 6.9 81 1.5 NE 9 15 5 8 - - 0.0
21/08:30am 9.0 6.7 7.3 89 0.8 ENE 9 15 5 8 - - 0.0
21/08:00am 8.0 6.0 6.9 93 0.5 ENE 7 13 4 7 - - 0.0
21/07:30am 7.3 5.1 6.2 93 0.5 NE 7 11 4 6 - - 0.0
21/07:00am 7.3 5.3 6.1 92 0.6 ENE 6 11 3 6 - - 0.0
21/06:30am 7.3 5.1 6.1 92 0.6 ENE 7 11 4 6 - - 0.0
21/06:00am 7.7 5.6 6.5 92 0.6 ENE 7 11 4 6 - - 0.0
21/05:30am 7.6 5.6 6.4 92 0.6 ENE 6 9 3 5 - - 0.0
21/05:00am 8.3 6.5 7.2 93 0.5 ENE 6 9 3 5 - - 0.0
21/04:30am 8.1 6.3 7.0 93 0.5 NE 6 7 3 4 - - 0.0
21/04:00am 7.9 6.0 6.8 93 0.5 ENE 6 9 3 5 - - 0.0
21/03:30am 7.5 5.9 6.3 92 0.6 ENE 4 7 2 4 - - 0.0
21/03:00am 7.8 6.3 6.6 92 0.6 E 4 7 2 4 - - 0.0
21/02:30am 8.2 6.4 7.0 92 0.6 E 6 7 3 4 - - 0.0
21/02:00am 8.5 6.7 7.3 92 0.6 NE 6 9 3 5 - - 0.0
21/01:30am 8.2 6.4 7.1 93 0.5 ENE 6 9 3 5 - - 0.0
21/01:00am 8.1 6.3 7.0 93 0.5 NE 6 9 3 5 - - 0.0
21/12:30am 7.9 5.8 6.8 93 0.5 ENE 7 11 4 6 - - 0.0
21/12:00am 7.7 5.8 6.6 93 0.5 NE 6 9 3 5 - - 0.0
 
Date/Time
WST
Temp
°C
App
Temp
°C
Dew
Point
Rel
Hum
%
Delta-T
°C
Wind Press
QNH
hPa
Press
MSL
hPa
Rain
since 9 am
mm
Dir
 
Spd
km/h
Gust
km/h
Spd
kts
Gust
kts
20/11:30pm 7.6 6.0 6.4 92 0.6 ENE 4 7 2 4 - - 0.0
20/11:00pm 7.6 6.4 6.4 92 0.6 E 2 6 1 3 - - 0.0
20/10:30pm 8.0 6.1 6.8 92 0.6 ENE 6 9 3 5 - - 0.0
20/10:00pm 8.0 6.1 6.6 91 0.7 ENE 6 7 3 4 - - 0.0
20/09:30pm 8.2 6.3 6.8 91 0.7 E 6 9 3 5 - - 0.0
20/09:00pm 8.1 6.6 6.6 90 0.7 E 4 7 2 4 - - 0.0
20/08:30pm 8.4 6.9 6.9 90 0.7 ESE 4 7 2 4 - - 0.0
20/08:00pm 8.7 6.9 7.0 89 0.8 ESE 6 7 3 4 - - 0.0
20/07:30pm 9.3 7.9 7.4 88 0.9 ESE 4 7 2 4 - - 0.0
20/07:00pm 10.1 8.3 8.0 87 1.0 ESE 7 9 4 5 - - 0.0
20/06:30pm 10.5 8.8 8.3 86 1.1 ESE 7 11 4 6 - - 0.0
20/06:00pm 10.5 8.9 8.1 85 1.2 ESE 6 11 3 6 - - 0.0
20/05:30pm 10.8 9.6 8.0 83 1.4 ESE 4 7 2 4 - - 0.0
20/05:00pm 11.3 9.5 8.0 80 1.6 SE 7 11 4 6 - - 0.0
20/04:30pm 11.8 9.5 7.5 75 2.1 SE 9 15 5 8 - - 0.0
20/04:00pm 12.3 10.3 8.6 78 1.9 SE 9 17 5 9 - - 0.0
20/03:30pm 12.3 9.4 8.0 75 2.1 SE 13 24 7 13 - - 0.0
20/03:00pm 12.3 10.2 8.4 77 2.0 SE 9 13 5 7 - - 0.0
20/02:30pm 12.7 10.5 8.0 73 2.3 SE 9 17 5 9 - - 0.0
20/02:00pm 14.5 13.0 9.1 70 2.8 NE 7 11 4 6 - - 0.0
20/01:30pm 13.4 11.1 7.6 68 2.9 ENE 9 17 5 9 - - 0.0
20/01:00pm 12.6 10.4 7.7 72 2.4 ENE 9 13 5 7 - - 0.0
20/12:30pm 12.7 10.6 8.4 75 2.2 NE 9 17 5 9 - - 0.0
20/12:00pm 12.8 10.6 7.9 72 2.4 ENE 9 13 5 7 - - 0.0
20/11:30am 12.7 10.8 7.6 71 2.5 ENE 7 11 4 6 - - 0.0
20/11:00am 12.2 9.6 7.7 74 2.2 E 11 20 6 11 - - 0.0

Other Formats:

Comma delimited format used in spreadsheet applications
http://www.bom.gov.au/fwo/IDW60801/IDW60801.94631.axf

JavaScript Object Notation format (JSON) in row-major order
http://www.bom.gov.au/fwo/IDW60801/IDW60801.94631.json